sensor_id;sensor_type;location;lat;lon;timestamp;pressure;altitude;pressure_sealevel;temperature;humidity
59289;BME280;45056;47.602;9.886;2023-04-04T00:00:50;93204.53;;;0.11;56.19
59289;BME280;45056;47.602;9.886;2023-04-04T00:03:18;93200.31;;;0.10;55.74
59289;BME280;45056;47.602;9.886;2023-04-04T00:05:46;93201.34;;;-0.02;56.25
59289;BME280;45056;47.602;9.886;2023-04-04T00:08:14;93204.03;;;-0.02;56.08
59289;BME280;45056;47.602;9.886;2023-04-04T00:10:44;93189.09;;;-0.03;56.01
59289;BME280;45056;47.602;9.886;2023-04-04T00:13:12;93192.91;;;-0.04;56.20
59289;BME280;45056;47.602;9.886;2023-04-04T00:15:40;93184.84;;;-0.11;55.91
59289;BME280;45056;47.602;9.886;2023-04-04T00:18:08;93192.47;;;-0.09;55.96
59289;BME280;45056;47.602;9.886;2023-04-04T00:20:36;93194.41;;;-0.10;55.98
59289;BME280;45056;47.602;9.886;2023-04-04T00:23:04;93189.00;;;-0.13;56.16
59289;BME280;45056;47.602;9.886;2023-04-04T00:25:32;93188.66;;;-0.12;56.04
59289;BME280;45056;47.602;9.886;2023-04-04T00:28:02;93184.09;;;-0.08;55.96
59289;BME280;45056;47.602;9.886;2023-04-04T00:30:30;93186.72;;;-0.11;55.79
59289;BME280;45056;47.602;9.886;2023-04-04T00:32:58;93180.22;;;-0.14;55.59
59289;BME280;45056;47.602;9.886;2023-04-04T00:35:27;93182.84;;;-0.18;55.79
59289;BME280;45056;47.602;9.886;2023-04-04T00:37:55;93181.25;;;-0.22;55.60
59289;BME280;45056;47.602;9.886;2023-04-04T00:40:23;93184.34;;;-0.20;55.87
59289;BME280;45056;47.602;9.886;2023-04-04T00:42:52;93190.09;;;-0.18;55.33
59289;BME280;45056;47.602;9.886;2023-04-04T00:45:22;93183.19;;;-0.23;55.52
59289;BME280;45056;47.602;9.886;2023-04-04T00:47:51;93180.84;;;-0.28;55.15
59289;BME280;45056;47.602;9.886;2023-04-04T00:50:21;93171.97;;;-0.32;54.77
59289;BME280;45056;47.602;9.886;2023-04-04T00:52:49;93173.06;;;-0.40;54.79
59289;BME280;45056;47.602;9.886;2023-04-04T00:55:17;93178.69;;;-0.49;55.00
59289;BME280;45056;47.602;9.886;2023-04-04T00:57:46;93179.47;;;-0.49;55.12
59289;BME280;45056;47.602;9.886;2023-04-04T01:00:15;93178.28;;;-0.51;54.84
59289;BME280;45056;47.602;9.886;2023-04-04T01:02:45;93169.13;;;-0.50;54.83
59289;BME280;45056;47.602;9.886;2023-04-04T01:05:13;93171.78;;;-0.54;54.70
59289;BME280;45056;47.602;9.886;2023-04-04T01:07:42;93175.97;;;-0.53;54.59
59289;BME280;45056;47.602;9.886;2023-04-04T01:10:10;93167.16;;;-0.57;54.82
59289;BME280;45056;47.602;9.886;2023-04-04T01:12:40;93173.63;;;-0.58;55.08
59289;BME280;45056;47.602;9.886;2023-04-04T01:15:10;93174.38;;;-0.57;54.85
59289;BME280;45056;47.602;9.886;2023-04-04T01:17:39;93178.56;;;-0.60;54.93
59289;BME280;45056;47.602;9.886;2023-04-04T01:20:14;93169.72;;;-0.64;55.06
59289;BME280;45056;47.602;9.886;2023-04-04T01:22:48;93172.38;;;-0.68;55.45
59289;BME280;45056;47.602;9.886;2023-04-04T01:25:24;93168.09;;;-0.76;55.47
59289;BME280;45056;47.602;9.886;2023-04-04T01:27:55;93163.50;;;-0.76;55.33
59289;BME280;45056;47.602;9.886;2023-04-04T01:30:26;93157.75;;;-0.78;55.41
59289;BME280;45056;47.602;9.886;2023-04-04T01:33:03;93153.94;;;-0.77;55.60
59289;BME280;45056;47.602;9.886;2023-04-04T01:35:43;93153.22;;;-0.74;55.72
59289;BME280;45056;47.602;9.886;2023-04-04T01:38:36;93155.16;;;-0.70;55.47
59289;BME280;45056;47.602;9.886;2023-04-04T01:41:14;93152.47;;;-0.70;55.63
59289;BME280;45056;47.602;9.886;2023-04-04T01:43:45;93152.06;;;-0.73;55.29
59289;BME280;45056;47.602;9.886;2023-04-04T01:46:15;93154.66;;;-0.80;55.58
59289;BME280;45056;47.602;9.886;2023-04-04T01:48:44;93147.38;;;-0.83;55.70
59289;BME280;45056;47.602;9.886;2023-04-04T01:51:13;93145.38;;;-0.90;55.89
59289;BME280;45056;47.602;9.886;2023-04-04T01:53:41;93152.94;;;-0.95;56.30
59289;BME280;45056;47.602;9.886;2023-04-04T01:56:09;93142.69;;;-0.93;56.36
59289;BME280;45056;47.602;9.886;2023-04-04T01:58:39;93141.59;;;-0.89;55.84
59289;BME280;45056;47.602;9.886;2023-04-04T02:01:06;93146.16;;;-0.89;56.36
59289;BME280;45056;47.602;9.886;2023-04-04T02:03:35;93151.88;;;-0.91;56.39
59289;BME280;45056;47.602;9.886;2023-04-04T02:06:03;93137.03;;;-0.88;56.13
59289;BME280;45056;47.602;9.886;2023-04-04T02:08:33;93137.28;;;-0.97;56.61
59289;BME280;45056;47.602;9.886;2023-04-04T02:11:01;93144.53;;;-0.97;56.39
59289;BME280;45056;47.602;9.886;2023-04-04T02:13:29;93133.81;;;-1.01;56.84
59289;BME280;45056;47.602;9.886;2023-04-04T02:15:59;93133.00;;;-1.05;56.81
59289;BME280;45056;47.602;9.886;2023-04-04T02:18:27;93127.91;;;-1.14;57.47
59289;BME280;45056;47.602;9.886;2023-04-04T02:20:55;93131.66;;;-1.19;57.58
59289;BME280;45056;47.602;9.886;2023-04-04T02:23:24;93124.31;;;-1.25;57.63
59289;BME280;45056;47.602;9.886;2023-04-04T02:25:52;93123.56;;;-1.26;58.04
59289;BME280;45056;47.602;9.886;2023-04-04T02:28:20;93118.88;;;-1.36;58.35
59289;BME280;45056;47.602;9.886;2023-04-04T02:30:48;93122.28;;;-1.36;58.27
59289;BME280;45056;47.602;9.886;2023-04-04T02:33:17;93129.94;;;-1.34;58.55
59289;BME280;45056;47.602;9.886;2023-04-04T02:35:45;93125.69;;;-1.39;58.21
59289;BME280;45056;47.602;9.886;2023-04-04T02:38:13;93118.06;;;-1.37;58.37
59289;BME280;45056;47.602;9.886;2023-04-04T02:40:41;93119.53;;;-1.43;58.58
59289;BME280;45056;47.602;9.886;2023-04-04T02:43:11;93118.03;;;-1.40;58.94
59289;BME280;45056;47.602;9.886;2023-04-04T02:45:39;93116.53;;;-1.38;58.74
59289;BME280;45056;47.602;9.886;2023-04-04T02:48:08;93109.66;;;-1.39;59.11
59289;BME280;45056;47.602;9.886;2023-04-04T02:50:38;93111.19;;;-1.38;58.69
59289;BME280;45056;47.602;9.886;2023-04-04T02:53:06;93107.41;;;-1.37;58.45
59289;BME280;45056;47.602;9.886;2023-04-04T02:55:34;93111.16;;;-1.41;58.83
59289;BME280;45056;47.602;9.886;2023-04-04T02:58:02;93121.00;;;-1.46;58.98
59289;BME280;45056;47.602;9.886;2023-04-04T03:00:30;93109.97;;;-1.44;59.24
59289;BME280;45056;47.602;9.886;2023-04-04T03:02:58;93103.44;;;-1.47;59.23
59289;BME280;45056;47.602;9.886;2023-04-04T03:05:26;93109.19;;;-1.45;59.41
59289;BME280;45056;47.602;9.886;2023-04-04T03:07:57;93112.25;;;-1.46;59.44
59289;BME280;45056;47.602;9.886;2023-04-04T03:10:27;93114.84;;;-1.50;59.09
59289;BME280;45056;47.602;9.886;2023-04-04T03:12:56;93112.97;;;-1.49;59.31
59289;BME280;45056;47.602;9.886;2023-04-04T03:15:24;93111.06;;;-1.49;59.43
59289;BME280;45056;47.602;9.886;2023-04-04T03:17:53;93115.25;;;-1.48;59.40
59289;BME280;45056;47.602;9.886;2023-04-04T03:20:22;93101.47;;;-1.53;59.82
59289;BME280;45056;47.602;9.886;2023-04-04T03:22:50;93112.03;;;-1.61;59.84
59289;BME280;45056;47.602;9.886;2023-04-04T03:25:19;93107.72;;;-1.69;59.84
59289;BME280;45056;47.602;9.886;2023-04-04T03:27:47;93107.31;;;-1.71;60.17
59289;BME280;45056;47.602;9.886;2023-04-04T03:30:15;93102.31;;;-1.72;60.35
59289;BME280;45056;47.602;9.886;2023-04-04T03:32:43;93100.75;;;-1.77;60.46
59289;BME280;45056;47.602;9.886;2023-04-04T03:35:11;93112.13;;;-1.80;60.31
59289;BME280;45056;47.602;9.886;2023-04-04T03:37:39;93099.97;;;-1.78;60.62
59289;BME280;45056;47.602;9.886;2023-04-04T03:40:08;93108.28;;;-1.83;60.76
59289;BME280;45056;47.602;9.886;2023-04-04T03:42:38;93116.28;;;-1.83;60.97
59289;BME280;45056;47.602;9.886;2023-04-04T03:45:07;93108.34;;;-1.79;60.61
59289;BME280;45056;47.602;9.886;2023-04-04T03:47:36;93105.69;;;-1.79;60.50
59289;BME280;45056;47.602;9.886;2023-04-04T03:50:04;93117.41;;;-1.84;61.09
59289;BME280;45056;47.602;9.886;2023-04-04T03:52:36;93111.25;;;-1.88;61.23
59289;BME280;45056;47.602;9.886;2023-04-04T03:55:05;93110.91;;;-1.86;61.21
59289;BME280;45056;47.602;9.886;2023-04-04T03:57:34;93111.72;;;-1.82;61.03
59289;BME280;45056;47.602;9.886;2023-04-04T04:00:05;93106.09;;;-1.77;60.52
59289;BME280;45056;47.602;9.886;2023-04-04T04:02:34;93122.03;;;-1.81;60.84
59289;BME280;45056;47.602;9.886;2023-04-04T04:05:02;93112.91;;;-1.80;60.99
59289;BME280;45056;47.602;9.886;2023-04-04T04:07:30;93112.13;;;-1.80;60.95
59289;BME280;45056;47.602;9.886;2023-04-04T04:09:58;93111.31;;;-1.84;61.44
59289;BME280;45056;47.602;9.886;2023-04-04T04:12:26;93110.44;;;-1.92;61.69
59289;BME280;45056;47.602;9.886;2023-04-04T04:14:54;93109.66;;;-1.93;61.28
59289;BME280;45056;47.602;9.886;2023-04-04T04:17:23;93111.19;;;-1.92;61.39
59289;BME280;45056;47.602;9.886;2023-04-04T04:19:51;93122.56;;;-1.95;61.55
59289;BME280;45056;47.602;9.886;2023-04-04T04:22:19;93114.97;;;-1.93;61.28
59289;BME280;45056;47.602;9.886;2023-04-04T04:24:47;93117.25;;;-1.95;61.24
59289;BME280;45056;47.602;9.886;2023-04-04T04:27:15;93116.53;;;-1.92;61.51
59289;BME280;45056;47.602;9.886;2023-04-04T04:29:43;93124.91;;;-1.93;61.46
59289;BME280;45056;47.602;9.886;2023-04-04T04:32:15;93127.91;;;-1.95;61.75
59289;BME280;45056;47.602;9.886;2023-04-04T04:34:44;93127.19;;;-1.92;61.58
59289;BME280;45056;47.602;9.886;2023-04-04T04:37:12;93117.34;;;-1.88;61.36
59289;BME280;45056;47.602;9.886;2023-04-04T04:39:40;93122.75;;;-1.84;61.02
59289;BME280;45056;47.602;9.886;2023-04-04T04:42:08;93118.59;;;-1.81;60.68
59289;BME280;45056;47.602;9.886;2023-04-04T04:44:36;93131.97;;;-1.78;60.85
59289;BME280;45056;47.602;9.886;2023-04-04T04:47:04;93123.94;;;-1.81;61.18
59289;BME280;45056;47.602;9.886;2023-04-04T04:49:32;93122.81;;;-1.80;61.02
59289;BME280;45056;47.602;9.886;2023-04-04T04:52:02;93120.16;;;-1.80;60.75
59289;BME280;45056;47.602;9.886;2023-04-04T04:54:30;93124.28;;;-1.83;61.10
59289;BME280;45056;47.602;9.886;2023-04-04T04:56:58;93130.00;;;-1.84;60.96
59289;BME280;45056;47.602;9.886;2023-04-04T04:59:27;93128.72;;;-1.91;60.97
59289;BME280;45056;47.602;9.886;2023-04-04T05:01:55;93130.22;;;-1.93;61.23
59289;BME280;45056;47.602;9.886;2023-04-04T05:04:22;93127.56;;;-1.93;61.44
59289;BME280;45056;47.602;9.886;2023-04-04T05:06:50;93129.09;;;-1.92;61.42
59289;BME280;45056;47.602;9.886;2023-04-04T05:09:20;93134.78;;;-1.94;61.24
59289;BME280;45056;47.602;9.886;2023-04-04T05:11:49;93140.94;;;-1.90;61.38
59289;BME280;45056;47.602;9.886;2023-04-04T05:14:17;93138.63;;;-1.91;61.24
59289;BME280;45056;47.602;9.886;2023-04-04T05:16:45;93137.59;;;-1.86;61.48
59289;BME280;45056;47.602;9.886;2023-04-04T05:19:13;93133.41;;;-1.84;61.44
59289;BME280;45056;47.602;9.886;2023-04-04T05:21:41;93131.16;;;-1.82;61.18
59289;BME280;45056;47.602;9.886;2023-04-04T05:24:10;93131.94;;;-1.81;60.97
59289;BME280;45056;47.602;9.886;2023-04-04T05:26:40;93139.22;;;-1.78;60.88
59289;BME280;45056;47.602;9.886;2023-04-04T05:29:08;93134.72;;;-1.74;61.24
59289;BME280;45056;47.602;9.886;2023-04-04T05:31:38;93142.81;;;-1.67;60.95
59289;BME280;45056;47.602;9.886;2023-04-04T05:34:06;93141.75;;;-1.62;60.41
59289;BME280;45056;47.602;9.886;2023-04-04T05:36:34;93141.38;;;-1.61;60.51
59289;BME280;45056;47.602;9.886;2023-04-04T05:39:03;93140.66;;;-1.57;60.63
59289;BME280;45056;47.602;9.886;2023-04-04T05:41:31;93144.22;;;-1.50;60.28
59289;BME280;45056;47.602;9.886;2023-04-04T05:44:01;93146.13;;;-1.50;60.20
59289;BME280;45056;47.602;9.886;2023-04-04T05:46:29;93147.69;;;-1.46;60.04
59289;BME280;45056;47.602;9.886;2023-04-04T05:48:57;93148.88;;;-1.43;59.87
59289;BME280;45056;47.602;9.886;2023-04-04T05:51:25;93140.16;;;-1.40;59.85
59289;BME280;45056;47.602;9.886;2023-04-04T05:53:53;93144.78;;;-1.37;59.63
59289;BME280;45056;47.602;9.886;2023-04-04T05:56:21;93150.19;;;-1.33;59.15
59289;BME280;45056;47.602;9.886;2023-04-04T05:58:50;93151.75;;;-1.28;59.06
59289;BME280;45056;47.602;9.886;2023-04-04T06:01:19;93152.59;;;-1.24;58.84
59289;BME280;45056;47.602;9.886;2023-04-04T06:03:47;93151.00;;;-1.29;58.61
59289;BME280;45056;47.602;9.886;2023-04-04T06:06:16;93148.72;;;-1.27;58.27
59289;BME280;45056;47.602;9.886;2023-04-04T06:08:44;93157.94;;;-1.24;58.84
59289;BME280;45056;47.602;9.886;2023-04-04T06:11:12;93154.94;;;-1.19;58.54
59289;BME280;45056;47.602;9.886;2023-04-04T06:13:40;93147.44;;;-1.10;58.32
59289;BME280;45056;47.602;9.886;2023-04-04T06:16:08;93149.06;;;-1.02;58.72
59289;BME280;45056;47.602;9.886;2023-04-04T06:18:37;93151.81;;;-0.94;57.85
59289;BME280;45056;47.602;9.886;2023-04-04T06:21:05;93149.59;;;-0.89;57.79
59289;BME280;45056;47.602;9.886;2023-04-04T06:23:33;93154.59;;;-0.87;57.76
59289;BME280;45056;47.602;9.886;2023-04-04T06:26:03;93152.31;;;-0.85;57.53
59289;BME280;45056;47.602;9.886;2023-04-04T06:28:32;93148.50;;;-0.84;57.64
59289;BME280;45056;47.602;9.886;2023-04-04T06:31:00;93153.53;;;-0.79;57.47
59289;BME280;45056;47.602;9.886;2023-04-04T06:33:28;93158.16;;;-0.76;57.81
59289;BME280;45056;47.602;9.886;2023-04-04T06:35:57;93149.38;;;-0.76;57.63
59289;BME280;45056;47.602;9.886;2023-04-04T06:38:25;93147.47;;;-0.76;57.25
59289;BME280;45056;47.602;9.886;2023-04-04T06:40:54;93147.41;;;-0.79;57.10
59289;BME280;45056;47.602;9.886;2023-04-04T06:43:22;93149.72;;;-0.78;57.06
59289;BME280;45056;47.602;9.886;2023-04-04T06:45:51;93146.72;;;-0.76;56.89
59289;BME280;45056;47.602;9.886;2023-04-04T06:48:19;93148.31;;;-0.68;57.35
59289;BME280;45056;47.602;9.886;2023-04-04T06:50:47;93151.06;;;-0.61;57.07
59289;BME280;45056;47.602;9.886;2023-04-04T06:53:16;93148.13;;;-0.52;56.37
59289;BME280;45056;47.602;9.886;2023-04-04T06:55:45;93154.34;;;-0.40;56.23
59289;BME280;45056;47.602;9.886;2023-04-04T06:58:13;93147.63;;;-0.27;56.25
59289;BME280;45056;47.602;9.886;2023-04-04T07:00:41;93146.59;;;-0.11;55.71
59289;BME280;45056;47.602;9.886;2023-04-04T07:03:09;93148.75;;;0.13;55.40
59289;BME280;45056;47.602;9.886;2023-04-04T07:05:37;93143.69;;;0.53;54.93
59289;BME280;45056;47.602;9.886;2023-04-04T07:08:06;93147.16;;;1.28;52.88
59289;BME280;45056;47.602;9.886;2023-04-04T07:10:36;93140.09;;;2.77;49.85
59289;BME280;45056;47.602;9.886;2023-04-04T07:13:04;93142.13;;;4.26;45.69
59289;BME280;45056;47.602;9.886;2023-04-04T07:15:32;93142.75;;;4.94;43.22
59289;BME280;45056;47.602;9.886;2023-04-04T07:18:00;93152.00;;;4.93;42.65
59289;BME280;45056;47.602;9.886;2023-04-04T07:20:28;93151.81;;;4.72;43.40
59289;BME280;45056;47.602;9.886;2023-04-04T07:22:56;93147.38;;;4.47;43.20
59289;BME280;45056;47.602;9.886;2023-04-04T07:25:24;93151.19;;;3.97;43.61
59289;BME280;45056;47.602;9.886;2023-04-04T07:27:53;93146.38;;;3.56;44.59
59289;BME280;45056;47.602;9.886;2023-04-04T07:30:21;93151.81;;;3.45;45.46
59289;BME280;45056;47.602;9.886;2023-04-04T07:32:56;93159.41;;;3.65;45.47
59289;BME280;45056;47.602;9.886;2023-04-04T07:35:24;93144.78;;;4.33;44.18
59289;BME280;45056;47.602;9.886;2023-04-04T07:37:53;93152.13;;;5.20;43.38
59289;BME280;45056;47.602;9.886;2023-04-04T07:40:21;93139.09;;;5.49;40.93
59289;BME280;45056;47.602;9.886;2023-04-04T07:42:49;93148.50;;;5.69;40.36
59289;BME280;45056;47.602;9.886;2023-04-04T07:45:21;93147.19;;;6.39;40.36
59289;BME280;45056;47.602;9.886;2023-04-04T07:47:49;93148.59;;;7.19;39.43
59289;BME280;45056;47.602;9.886;2023-04-04T07:50:17;93149.56;;;7.89;37.26
59289;BME280;45056;47.602;9.886;2023-04-04T07:52:48;93145.16;;;8.52;36.41
59289;BME280;45056;47.602;9.886;2023-04-04T07:55:19;93147.66;;;9.09;37.78
59289;BME280;45056;47.602;9.886;2023-04-04T07:57:50;93144.44;;;9.44;35.08
59289;BME280;45056;47.602;9.886;2023-04-04T08:00:21;93145.72;;;9.69;35.24
59289;BME280;45056;47.602;9.886;2023-04-04T08:02:52;93142.59;;;9.71;32.81
59289;BME280;45056;47.602;9.886;2023-04-04T08:05:21;93144.44;;;9.44;32.57
59289;BME280;45056;47.602;9.886;2023-04-04T08:07:50;93145.41;;;8.91;33.50
59289;BME280;45056;47.602;9.886;2023-04-04T08:10:18;93151.44;;;8.29;33.96
59289;BME280;45056;47.602;9.886;2023-04-04T08:12:47;93141.59;;;7.62;34.64
59289;BME280;45056;47.602;9.886;2023-04-04T08:15:15;93143.06;;;7.26;35.38
59289;BME280;45056;47.602;9.886;2023-04-04T08:17:44;93139.84;;;6.87;36.29
59289;BME280;45056;47.602;9.886;2023-04-04T08:20:12;93135.94;;;6.68;36.79
59289;BME280;45056;47.602;9.886;2023-04-04T08:22:41;93143.72;;;6.39;36.62
59289;BME280;45056;47.602;9.886;2023-04-04T08:25:09;93136.59;;;6.25;37.06
59289;BME280;45056;47.602;9.886;2023-04-04T08:27:38;93137.25;;;6.32;36.41
59289;BME280;45056;47.602;9.886;2023-04-04T08:30:10;93141.44;;;6.10;36.49
59289;BME280;45056;47.602;9.886;2023-04-04T08:32:39;93136.53;;;5.70;37.12
59289;BME280;45056;47.602;9.886;2023-04-04T08:35:09;93146.72;;;5.20;38.03
59289;BME280;45056;47.602;9.886;2023-04-04T08:37:37;93146.28;;;4.87;38.77
59289;BME280;45056;47.602;9.886;2023-04-04T08:40:07;93153.13;;;4.50;39.59
59289;BME280;45056;47.602;9.886;2023-04-04T08:42:36;93151.00;;;4.23;40.24
59289;BME280;45056;47.602;9.886;2023-04-04T08:45:10;93153.16;;;3.86;40.75
59289;BME280;45056;47.602;9.886;2023-04-04T08:47:41;93148.59;;;3.75;41.72
59289;BME280;45056;47.602;9.886;2023-04-04T08:50:12;93156.25;;;3.81;41.76
59289;BME280;45056;47.602;9.886;2023-04-04T08:52:41;93154.56;;;4.05;41.36
59289;BME280;45056;47.602;9.886;2023-04-04T08:55:11;93158.72;;;4.73;40.74
59289;BME280;45056;47.602;9.886;2023-04-04T08:57:41;93144.03;;;5.55;39.71
59289;BME280;45056;47.602;9.886;2023-04-04T09:00:10;93154.84;;;6.17;38.14
59289;BME280;45056;47.602;9.886;2023-04-04T09:02:46;93156.88;;;6.88;37.24
59289;BME280;45056;47.602;9.886;2023-04-04T09:05:20;93153.34;;;7.35;36.25
59289;BME280;45056;47.602;9.886;2023-04-04T09:07:49;93151.81;;;7.54;34.55
59289;BME280;45056;47.602;9.886;2023-04-04T09:10:18;93159.59;;;7.52;34.76
59289;BME280;45056;47.602;9.886;2023-04-04T09:12:47;93157.22;;;7.34;35.28
59289;BME280;45056;47.602;9.886;2023-04-04T09:15:18;93149.97;;;7.07;35.75
59289;BME280;45056;47.602;9.886;2023-04-04T09:17:46;93152.25;;;6.85;36.53
59289;BME280;45056;47.602;9.886;2023-04-04T09:20:40;93155.88;;;6.50;36.38
59289;BME280;45056;47.602;9.886;2023-04-04T09:23:11;93159.13;;;6.14;36.92
59289;BME280;45056;47.602;9.886;2023-04-04T09:25:45;93157.72;;;5.71;38.33
59289;BME280;45056;47.602;9.886;2023-04-04T09:28:15;93158.78;;;5.46;39.34
59289;BME280;45056;47.602;9.886;2023-04-04T09:30:43;93153.91;;;5.34;38.63
59289;BME280;45056;47.602;9.886;2023-04-04T09:33:16;93164.44;;;5.21;39.49
59289;BME280;45056;47.602;9.886;2023-04-04T09:35:50;93165.41;;;5.00;39.58
59289;BME280;45056;47.602;9.886;2023-04-04T09:38:22;93169.31;;;4.95;38.96
59289;BME280;45056;47.602;9.886;2023-04-04T09:40:53;93165.81;;;4.98;38.94
59289;BME280;45056;47.602;9.886;2023-04-04T09:43:24;93168.56;;;4.91;38.55
59289;BME280;45056;47.602;9.886;2023-04-04T09:45:56;93164.41;;;4.86;38.99
59289;BME280;45056;47.602;9.886;2023-04-04T09:48:27;93170.19;;;4.85;38.78
59289;BME280;45056;47.602;9.886;2023-04-04T09:51:01;93170.97;;;4.82;39.41
59289;BME280;45056;47.602;9.886;2023-04-04T09:53:33;93166.75;;;4.81;39.40
59289;BME280;45056;47.602;9.886;2023-04-04T09:56:03;93170.97;;;4.82;39.37
59289;BME280;45056;47.602;9.886;2023-04-04T09:58:32;93167.09;;;4.86;38.77
59289;BME280;45056;47.602;9.886;2023-04-04T10:01:03;93167.13;;;4.83;38.26
59289;BME280;45056;47.602;9.886;2023-04-04T10:03:36;93163.28;;;4.80;38.25
59289;BME280;45056;47.602;9.886;2023-04-04T10:06:07;93165.50;;;4.89;38.21
59289;BME280;45056;47.602;9.886;2023-04-04T10:08:38;93160.03;;;5.00;38.45
59289;BME280;45056;47.602;9.886;2023-04-04T10:11:07;93164.16;;;5.12;38.29
59289;BME280;45056;47.602;9.886;2023-04-04T10:13:36;93169.75;;;5.28;38.28
59289;BME280;45056;47.602;9.886;2023-04-04T10:16:06;93166.63;;;5.33;37.58
59289;BME280;45056;47.602;9.886;2023-04-04T10:18:36;93169.34;;;5.33;36.79
59289;BME280;45056;47.602;9.886;2023-04-04T10:21:07;93181.66;;;5.34;37.11
59289;BME280;45056;47.602;9.886;2023-04-04T10:23:35;93168.91;;;5.35;36.69
59289;BME280;45056;47.602;9.886;2023-04-04T10:26:04;93174.31;;;5.35;36.93
59289;BME280;45056;47.602;9.886;2023-04-04T10:28:33;93178.09;;;5.41;36.03
59289;BME280;45056;47.602;9.886;2023-04-04T10:31:05;93171.28;;;5.29;35.68
59289;BME280;45056;47.602;9.886;2023-04-04T10:33:47;93164.69;;;5.34;36.67
59289;BME280;45056;47.602;9.886;2023-04-04T10:36:23;93168.00;;;5.49;37.14
59289;BME280;45056;47.602;9.886;2023-04-04T10:39:08;93160.03;;;5.69;36.22
59289;BME280;45056;47.602;9.886;2023-04-04T10:41:41;93157.09;;;5.91;36.74
59289;BME280;45056;47.602;9.886;2023-04-04T10:44:19;93170.38;;;6.09;35.62
59289;BME280;45056;47.602;9.886;2023-04-04T10:46:56;93171.16;;;6.10;35.07
59289;BME280;45056;47.602;9.886;2023-04-04T10:49:31;93165.59;;;6.20;35.67
59289;BME280;45056;47.602;9.886;2023-04-04T10:52:02;93162.69;;;6.35;35.00
59289;BME280;45056;47.602;9.886;2023-04-04T10:54:30;93164.88;;;6.44;34.58
59289;BME280;45056;47.602;9.886;2023-04-04T10:56:59;93164.56;;;6.38;33.75
59289;BME280;45056;47.602;9.886;2023-04-04T10:59:28;93152.25;;;6.37;34.12
59289;BME280;45056;47.602;9.886;2023-04-04T11:01:57;93166.09;;;6.39;33.97
59289;BME280;45056;47.602;9.886;2023-04-04T11:04:32;93151.97;;;6.55;34.89
59289;BME280;45056;47.602;9.886;2023-04-04T11:07:12;93153.16;;;6.78;34.73
59289;BME280;45056;47.602;9.886;2023-04-04T11:09:47;93151.84;;;6.86;33.59
59289;BME280;45056;47.602;9.886;2023-04-04T11:12:20;93151.97;;;6.79;33.97
59289;BME280;45056;47.602;9.886;2023-04-04T11:14:57;93152.91;;;6.69;33.58
59289;BME280;45056;47.602;9.886;2023-04-04T11:17:41;93153.38;;;6.63;33.16
59289;BME280;45056;47.602;9.886;2023-04-04T11:20:15;93146.28;;;6.73;33.78
59289;BME280;45056;47.602;9.886;2023-04-04T11:22:48;93142.22;;;6.85;33.13
59289;BME280;45056;47.602;9.886;2023-04-04T11:25:32;93148.03;;;6.84;32.56
59289;BME280;45056;47.602;9.886;2023-04-04T11:31:25;93151.19;;;7.02;32.43
59289;BME280;45056;47.602;9.886;2023-04-04T11:34:03;93146.91;;;7.05;32.16
59289;BME280;45056;47.602;9.886;2023-04-04T11:36:53;93134.28;;;6.98;32.04
59289;BME280;45056;47.602;9.886;2023-04-04T11:39:27;93142.59;;;7.07;33.02
59289;BME280;45056;47.602;9.886;2023-04-04T11:42:00;93140.00;;;7.24;32.95
59289;BME280;45056;47.602;9.886;2023-04-04T11:44:40;93138.41;;;7.47;32.70
59289;BME280;45056;47.602;9.886;2023-04-04T11:47:10;93135.38;;;7.65;31.83
59289;BME280;45056;47.602;9.886;2023-04-04T11:49:41;93130.44;;;7.80;31.92
59289;BME280;45056;47.602;9.886;2023-04-04T11:52:12;93143.81;;;7.87;31.03
59289;BME280;45056;47.602;9.886;2023-04-04T11:54:44;93133.66;;;7.91;31.19
59289;BME280;45056;47.602;9.886;2023-04-04T11:57:15;93139.28;;;8.01;31.50
59289;BME280;45056;47.602;9.886;2023-04-04T11:59:46;93135.09;;;8.16;31.22
59289;BME280;45056;47.602;9.886;2023-04-04T12:02:19;93132.72;;;8.18;29.76
59289;BME280;45056;47.602;9.886;2023-04-04T12:04:51;93145.81;;;8.03;29.90
59289;BME280;45056;47.602;9.886;2023-04-04T12:07:19;93141.59;;;7.62;29.63
59289;BME280;45056;47.602;9.886;2023-04-04T12:09:49;93143.22;;;7.39;30.72
59289;BME280;45056;47.602;9.886;2023-04-04T12:12:18;93142.78;;;7.41;31.18
59289;BME280;45056;47.602;9.886;2023-04-04T12:14:46;93138.19;;;7.58;31.74
59289;BME280;45056;47.602;9.886;2023-04-04T12:17:14;93139.66;;;7.83;32.49
59289;BME280;45056;47.602;9.886;2023-04-04T12:19:43;93139.53;;;8.06;31.93
59289;BME280;45056;47.602;9.886;2023-04-04T12:22:11;93135.25;;;8.26;31.15
59289;BME280;45056;47.602;9.886;2023-04-04T12:24:39;93135.75;;;8.37;30.33
59289;BME280;45056;47.602;9.886;2023-04-04T12:27:09;93137.81;;;8.33;30.57
59289;BME280;45056;47.602;9.886;2023-04-04T12:29:37;93140.06;;;8.18;30.50
59289;BME280;45056;47.602;9.886;2023-04-04T12:32:06;93138.25;;;8.11;30.62
59289;BME280;45056;47.602;9.886;2023-04-04T12:34:41;93135.94;;;8.13;30.52
59289;BME280;45056;47.602;9.886;2023-04-04T12:37:10;93147.34;;;8.21;30.67
59289;BME280;45056;47.602;9.886;2023-04-04T12:39:45;93143.44;;;8.05;29.49
59289;BME280;45056;47.602;9.886;2023-04-04T12:42:21;93140.28;;;8.07;30.48
59289;BME280;45056;47.602;9.886;2023-04-04T12:44:50;93133.50;;;7.99;29.66
59289;BME280;45056;47.602;9.886;2023-04-04T12:47:19;93136.38;;;7.91;30.39
59289;BME280;45056;47.602;9.886;2023-04-04T12:49:51;93126.63;;;7.94;30.11
59289;BME280;45056;47.602;9.886;2023-04-04T12:52:25;93134.19;;;8.03;30.86
59289;BME280;45056;47.602;9.886;2023-04-04T12:54:58;93124.69;;;7.94;30.15
59289;BME280;45056;47.602;9.886;2023-04-04T12:57:28;93145.34;;;7.88;30.31
59289;BME280;45056;47.602;9.886;2023-04-04T13:00:00;93131.31;;;7.73;30.20
59289;BME280;45056;47.602;9.886;2023-04-04T13:02:34;93133.47;;;7.82;31.15
59289;BME280;45056;47.602;9.886;2023-04-04T13:05:05;93137.06;;;7.96;30.99
59289;BME280;45056;47.602;9.886;2023-04-04T13:07:37;93128.97;;;8.12;31.05
59289;BME280;45056;47.602;9.886;2023-04-04T13:10:11;93137.28;;;8.21;30.25
59289;BME280;45056;47.602;9.886;2023-04-04T13:12:56;93149.09;;;8.11;30.14
59289;BME280;45056;47.602;9.886;2023-04-04T13:15:47;93143.94;;;8.00;30.77
59289;BME280;45056;47.602;9.886;2023-04-04T13:18:17;93137.97;;;7.89;29.77
59289;BME280;45056;47.602;9.886;2023-04-04T13:20:47;93148.59;;;7.79;30.57
59289;BME280;45056;47.602;9.886;2023-04-04T13:23:16;93144.25;;;7.65;30.95